Sardinia Regina — IBMS — position and weather

sailwx.info

Track history (hours):
 
Tides and Currents Weather Stations Pressure Air Temp Water Temp Dewpoint Dewpoint Depression Visibility Wind Speed Wind Dir Waves Ship Positions

Sardinia Regina

Last reported at 2018-Feb-19 22:07 UTC. Time now 2018-Feb-20 15:29 UTC.
Position N 43°02' E 010°02'.

Length 146 m; draft 5 m.

Type: Passenger vessel. MMSI: 247079000.

Date/timePositionNaut miles runAvg speedWind from/ knotsBaromVisibWave heightAir tempDewpointWater temp
2018-Feb-19 22:07N 43°02' E 010°02'218.0
2018-Feb-19 21:59N 43°04' E 010°03'918.0
2018-Feb-19 21:30N 43°12' E 010°05'917.9
2018-Feb-19 21:00N 43°21' E 010°09'917.8
2018-Feb-19 20:30N 43°30' E 010°12'510.4
2018-Feb-19 20:01N 43°33' E 010°18'1 1.1
2018-Feb-19 19:30N 43°33' E 010°18'0 0.0
2018-Feb-19 19:00N 43°33' E 010°18'0 0.0
2018-Feb-19 18:30N 43°33' E 010°18'0 0.0
2018-Feb-19 18:00N 43°33' E 010°18'0 0.0
2018-Feb-19 17:30N 43°33' E 010°18'0 0.0
2018-Feb-19 17:00N 43°33' E 010°18'0 0.0
2018-Feb-19 16:30N 43°33' E 010°18'0 0.0
2018-Feb-19 16:00N 43°33' E 010°18'0 0.0
2018-Feb-19 15:30N 43°33' E 010°18'0 0.0
2018-Feb-19 15:00N 43°33' E 010°18'0 0.0
2018-Feb-19 14:30N 43°33' E 010°18'0 0.0
2018-Feb-19 14:00N 43°33' E 010°18'0 0.0
2018-Feb-19 13:30N 43°33' E 010°18'0 0.0
2018-Feb-19 13:00N 43°33' E 010°18'0 0.0
2018-Feb-19 12:30N 43°33' E 010°18'0 0.1
2018-Feb-19 12:00N 43°33' E 010°18'0 0.0
2018-Feb-19 11:30N 43°33' E 010°18'0 0.0
2018-Feb-19 11:00N 43°33' E 010°18'0 0.0
2018-Feb-19 10:30N 43°33' E 010°18'0 0.0
2018-Feb-19 10:00N 43°33' E 010°18'0 0.0
2018-Feb-19 09:30N 43°33' E 010°18'0 0.0
2018-Feb-19 09:00N 43°33' E 010°18'0 0.0
2018-Feb-19 08:30N 43°33' E 010°18'0 0.0
2018-Feb-19 08:00N 43°33' E 010°18'0 0.0
2018-Feb-19 07:30N 43°33' E 010°18'0 0.0
2018-Feb-19 07:00N 43°33' E 010°18'0 0.0
2018-Feb-19 06:30N 43°33' E 010°18'0 0.0
2018-Feb-19 06:00N 43°33' E 010°18'2 3.4
2018-Feb-19 05:30N 43°32' E 010°16'612.4
2018-Feb-19 05:01N 43°27' E 010°12'917.5
2018-Feb-19 04:30N 43°18' E 010°09'917.2
2018-Feb-19 04:01N 43°10' E 010°06'3 0.1
2018-Feb-17 21:54N 43°07' E 010°04'616.3
2018-Feb-17 21:30N 43°14' E 010°06'816.1
2018-Feb-17 21:00N 43°21' E 010°09'816.1
2018-Feb-17 20:30N 43°29' E 010°11'611.4
2018-Feb-17 20:00N 43°33' E 010°17'1 1.6
2018-Feb-17 19:30N 43°33' E 010°18'0 0.0
2018-Feb-17 19:00N 43°33' E 010°18'0 0.0
2018-Feb-17 18:30N 43°33' E 010°18'0 0.0
2018-Feb-17 18:00N 43°33' E 010°18'0 0.0
2018-Feb-17 17:30N 43°33' E 010°18'0 0.0
2018-Feb-17 17:00N 43°33' E 010°18'0 0.0
2018-Feb-17 16:30N 43°33' E 010°18'0 0.0
2018-Feb-17 16:00N 43°33' E 010°18'0 0.0
2018-Feb-17 15:30N 43°33' E 010°18'0 0.0
2018-Feb-17 15:00N 43°33' E 010°18'0 0.0
2018-Feb-17 14:30N 43°33' E 010°18'0 0.0
2018-Feb-17 14:00N 43°33' E 010°18'0 0.0
2018-Feb-17 13:30N 43°33' E 010°18'0 0.0
2018-Feb-17 13:00N 43°33' E 010°18'0 0.0
2018-Feb-17 12:30N 43°33' E 010°18'0 0.0
2018-Feb-17 12:00N 43°33' E 010°18'0 0.0
2018-Feb-17 11:30N 43°33' E 010°18'0 0.0
2018-Feb-17 11:00N 43°33' E 010°18'0 0.0
2018-Feb-17 10:30N 43°33' E 010°18'0 0.0
2018-Feb-17 10:00N 43°33' E 010°18'0 0.0
2018-Feb-17 09:30N 43°33' E 010°18'0 0.0
2018-Feb-17 09:00N 43°33' E 010°18'0 0.0
2018-Feb-17 08:30N 43°33' E 010°18'0 0.0
2018-Feb-17 08:00N 43°33' E 010°18'0 0.0
2018-Feb-17 07:30N 43°33' E 010°18'0 0.0
2018-Feb-17 07:00N 43°33' E 010°18'0 0.0
2018-Feb-17 06:30N 43°33' E 010°18'0 0.0
2018-Feb-17 06:00N 43°33' E 010°18'0 0.0
2018-Feb-17 05:30N 43°33' E 010°18'1 2.7
2018-Feb-17 05:00N 43°32' E 010°17'510.8
2018-Feb-17 04:30N 43°28' E 010°13'917.7
2018-Feb-17 04:00N 43°19' E 010°10'15 0.5
2018-Feb-15 21:59N 43°05' E 010°03'817.8
2018-Feb-15 21:31N 43°13' E 010°05'917.7
2018-Feb-15 21:01N 43°22' E 010°09'917.5
2018-Feb-15 20:30N 43°30' E 010°13'5 9.2
2018-Feb-15 20:01N 43°33' E 010°18'0 0.9
2018-Feb-15 19:30N 43°33' E 010°18'0 0.0
2018-Feb-15 19:01N 43°33' E 010°18'0 0.0
2018-Feb-15 18:30N 43°33' E 010°18'0 0.0
2018-Feb-15 18:01N 43°33' E 010°18'0 0.0
2018-Feb-15 17:31N 43°33' E 010°18'2 3.9
2018-Feb-15 17:01N 43°32' E 010°16'612.9
2018-Feb-15 16:30N 43°26' E 010°12'816.4
2018-Feb-15 16:00N 43°19' E 010°08'816.0
2018-Feb-15 15:30N 43°11' E 010°05'2014.6
2018-Feb-15 14:10N 42°54' E 009°51'2 0.5
2018-Feb-15 10:08N 42°54' E 009°48'217.2
2018-Feb-15 10:00N 42°55' E 009°50'917.1
2018-Feb-15 09:31N 43°01' E 009°58'917.5
2018-Feb-15 09:01N 43°10' E 010°02'917.5
2018-Feb-15 08:31N 43°18' E 010°06'917.6
2018-Feb-15 08:00N 43°26' E 010°10'714.7
2018-Feb-15 07:30N 43°32' E 010°16'2 4.0
2018-Feb-15 07:01N 43°33' E 010°18'0 0.0
2018-Feb-15 06:30N 43°33' E 010°18'0 0.0
2018-Feb-15 06:01N 43°33' E 010°18'0 1.0
2018-Feb-15 05:31N 43°33' E 010°18'4 8.6
2018-Feb-15 05:00N 43°30' E 010°14'917.5
2018-Feb-15 04:30N 43°21' E 010°10'917.7
2018-Feb-15 04:00N 43°13' E 010°07'9 0.3
2018-Feb-13 22:02N 43°05' E 010°02'118.1
2018-Feb-13 21:59N 43°06' E 010°02'817.6
2018-Feb-13 21:30N 43°14' E 010°05'917.7
2018-Feb-13 21:00N 43°22' E 010°09'917.5
2018-Feb-13 20:30N 43°31' E 010°13'4 8.9
2018-Feb-13 20:00N 43°33' E 010°18'0 0.6
2018-Feb-13 19:30N 43°33' E 010°18'0 0.0
2018-Feb-13 19:00N 43°33' E 010°18'0 0.0
2018-Feb-13 18:31N 43°33' E 010°18'0 0.0
2018-Feb-13 18:00N 43°33' E 010°18'0 0.0
2018-Feb-13 17:30N 43°33' E 010°18'2 3.7
2018-Feb-13 17:00N 43°32' E 010°16'612.9
2018-Feb-13 16:30N 43°27' E 010°12'817.0
2018-Feb-13 16:00N 43°19' E 010°07'817.0
2018-Feb-13 15:31N 43°11' E 010°03'1916.3
2018-Feb-13 14:21N 42°54' E 009°50'2 0.5
2018-Feb-13 10:32N 42°54' E 009°48'017.8
2018-Feb-13 10:30N 42°54' E 009°48'917.3
2018-Feb-13 09:58N 43°00' E 009°58'817.7
2018-Feb-13 09:30N 43°08' E 010°01'917.8
2018-Feb-13 09:00N 43°16' E 010°05'917.8
2018-Feb-13 08:30N 43°25' E 010°09'816.5
2018-Feb-13 08:00N 43°32' E 010°15'3 5.4
2018-Feb-13 07:30N 43°33' E 010°18'0 0.0
2018-Feb-13 07:00N 43°33' E 010°18'0 0.0
2018-Feb-13 06:30N 43°33' E 010°18'0 0.5
2018-Feb-13 06:00N 43°33' E 010°18'3 6.5
2018-Feb-13 05:30N 43°31' E 010°15'815.4
2018-Feb-13 05:00N 43°24' E 010°11'816.8
2018-Feb-13 04:30N 43°15' E 010°08'816.9
2018-Feb-13 04:00N 43°07' E 010°06'4 0.1
2018-Feb-11 23:02N 43°03' E 010°04'117.5
2018-Feb-11 23:00N 43°04' E 010°04'917.1
2018-Feb-11 22:30N 43°12' E 010°06'917.2
2018-Feb-11 22:00N 43°20' E 010°09'817.0
2018-Feb-11 21:30N 43°29' E 010°12'611.4
2018-Feb-11 21:00N 43°33' E 010°17'1 1.5
2018-Feb-11 20:30N 43°33' E 010°18'0 0.0
2018-Feb-11 20:00N 43°33' E 010°18'0 0.0
2018-Feb-11 19:30N 43°33' E 010°18'3 5.0
2018-Feb-11 19:00N 43°31' E 010°16'612.3
2018-Feb-11 18:30N 43°26' E 010°11'816.5
2018-Feb-11 18:00N 43°19' E 010°07'816.6
2018-Feb-11 17:30N 43°11' E 010°03'21 4.2
2018-Feb-11 12:36N 42°54' E 009°48'1517.2
2018-Feb-11 11:44N 43°05' E 010°00'417.8
2018-Feb-11 11:31N 43°09' E 010°02'917.7
2018-Feb-11 11:01N 43°18' E 010°05'917.7
2018-Feb-11 10:31N 43°26' E 010°09'815.0
2018-Feb-11 10:00N 43°32' E 010°16'2 4.3
2018-Feb-11 09:30N 43°33' E 010°18'0 0.0
2018-Feb-11 09:00N 43°33' E 010°18'0 0.0
2018-Feb-11 08:30N 43°33' E 010°18'0 0.0
2018-Feb-11 08:00N 43°33' E 010°18'0 0.0
2018-Feb-11 07:30N 43°33' E 010°18'0 0.0
2018-Feb-11 07:00N 43°33' E 010°18'1 2.5
2018-Feb-11 06:30N 43°32' E 010°17'510.6
2018-Feb-11 06:00N 43°28' E 010°13'714.9
2018-Feb-11 05:30N 43°21' E 010°10'815.1
2018-Feb-11 05:00N 43°14' E 010°08'10 0.3
2018-Feb-09 22:08N 43°04' E 010°04'  
Track history (hours):
 
Tides and Currents Weather Stations Pressure Air Temp Water Temp Dewpoint Dewpoint Depression Visibility Wind Speed Wind Dir Waves Ship Positions

Sardinia Regina

Last reported at 2018-Feb-19 22:07 UTC. Time now 2018-Feb-20 15:29 UTC.
Position N 43°02' E 010°02'.

Length 146 m; draft 5 m.

Type: Passenger vessel. MMSI: 247079000.

Date/timePositionNaut miles runAvg speedWind from/ knotsBaromVisibWave heightAir tempDewpointWater temp
2018-Feb-19 22:07N 43°02' E 010°02'218.0
2018-Feb-19 21:59N 43°04' E 010°03'918.0
2018-Feb-19 21:30N 43°12' E 010°05'917.9
2018-Feb-19 21:00N 43°21' E 010°09'917.8
2018-Feb-19 20:30N 43°30' E 010°12'510.4
2018-Feb-19 20:01N 43°33' E 010°18'1 1.1
2018-Feb-19 19:30N 43°33' E 010°18'0 0.0
2018-Feb-19 19:00N 43°33' E 010°18'0 0.0
2018-Feb-19 18:30N 43°33' E 010°18'0 0.0
2018-Feb-19 18:00N 43°33' E 010°18'0 0.0
2018-Feb-19 17:30N 43°33' E 010°18'0 0.0
2018-Feb-19 17:00N 43°33' E 010°18'0 0.0
2018-Feb-19 16:30N 43°33' E 010°18'0 0.0
2018-Feb-19 16:00N 43°33' E 010°18'0 0.0
2018-Feb-19 15:30N 43°33' E 010°18'0 0.0
2018-Feb-19 15:00N 43°33' E 010°18'0 0.0
2018-Feb-19 14:30N 43°33' E 010°18'0 0.0
2018-Feb-19 14:00N 43°33' E 010°18'0 0.0
2018-Feb-19 13:30N 43°33' E 010°18'0 0.0
2018-Feb-19 13:00N 43°33' E 010°18'0 0.0
2018-Feb-19 12:30N 43°33' E 010°18'0 0.1
2018-Feb-19 12:00N 43°33' E 010°18'0 0.0
2018-Feb-19 11:30N 43°33' E 010°18'0 0.0
2018-Feb-19 11:00N 43°33' E 010°18'0 0.0
2018-Feb-19 10:30N 43°33' E 010°18'0 0.0
2018-Feb-19 10:00N 43°33' E 010°18'0 0.0
2018-Feb-19 09:30N 43°33' E 010°18'0 0.0
2018-Feb-19 09:00N 43°33' E 010°18'0 0.0
2018-Feb-19 08:30N 43°33' E 010°18'0 0.0
2018-Feb-19 08:00N 43°33' E 010°18'0 0.0
2018-Feb-19 07:30N 43°33' E 010°18'0 0.0
2018-Feb-19 07:00N 43°33' E 010°18'0 0.0
2018-Feb-19 06:30N 43°33' E 010°18'0 0.0
2018-Feb-19 06:00N 43°33' E 010°18'2 3.4
2018-Feb-19 05:30N 43°32' E 010°16'612.4
2018-Feb-19 05:01N 43°27' E 010°12'917.5
2018-Feb-19 04:30N 43°18' E 010°09'917.2
2018-Feb-19 04:01N 43°10' E 010°06'3 0.1
2018-Feb-17 21:54N 43°07' E 010°04'616.3
2018-Feb-17 21:30N 43°14' E 010°06'816.1
2018-Feb-17 21:00N 43°21' E 010°09'816.1
2018-Feb-17 20:30N 43°29' E 010°11'611.4
2018-Feb-17 20:00N 43°33' E 010°17'1 1.6
2018-Feb-17 19:30N 43°33' E 010°18'0 0.0
2018-Feb-17 19:00N 43°33' E 010°18'0 0.0
2018-Feb-17 18:30N 43°33' E 010°18'0 0.0
2018-Feb-17 18:00N 43°33' E 010°18'0 0.0
2018-Feb-17 17:30N 43°33' E 010°18'0 0.0
2018-Feb-17 17:00N 43°33' E 010°18'0 0.0
2018-Feb-17 16:30N 43°33' E 010°18'0 0.0
2018-Feb-17 16:00N 43°33' E 010°18'0 0.0
2018-Feb-17 15:30N 43°33' E 010°18'0 0.0
2018-Feb-17 15:00N 43°33' E 010°18'0 0.0
2018-Feb-17 14:30N 43°33' E 010°18'0 0.0
2018-Feb-17 14:00N 43°33' E 010°18'0 0.0
2018-Feb-17 13:30N 43°33' E 010°18'0 0.0
2018-Feb-17 13:00N 43°33' E 010°18'0 0.0
2018-Feb-17 12:30N 43°33' E 010°18'0 0.0
2018-Feb-17 12:00N 43°33' E 010°18'0 0.0
2018-Feb-17 11:30N 43°33' E 010°18'0 0.0
2018-Feb-17 11:00N 43°33' E 010°18'0 0.0
2018-Feb-17 10:30N 43°33' E 010°18'0 0.0
2018-Feb-17 10:00N 43°33' E 010°18'0 0.0
2018-Feb-17 09:30N 43°33' E 010°18'0 0.0
2018-Feb-17 09:00N 43°33' E 010°18'0 0.0
2018-Feb-17 08:30N 43°33' E 010°18'0 0.0
2018-Feb-17 08:00N 43°33' E 010°18'0 0.0
2018-Feb-17 07:30N 43°33' E 010°18'0 0.0
2018-Feb-17 07:00N 43°33' E 010°18'0 0.0
2018-Feb-17 06:30N 43°33' E 010°18'0 0.0
2018-Feb-17 06:00N 43°33' E 010°18'0 0.0
2018-Feb-17 05:30N 43°33' E 010°18'1 2.7
2018-Feb-17 05:00N 43°32' E 010°17'510.8
2018-Feb-17 04:30N 43°28' E 010°13'917.7
2018-Feb-17 04:00N 43°19' E 010°10'15 0.5
2018-Feb-15 21:59N 43°05' E 010°03'817.8
2018-Feb-15 21:31N 43°13' E 010°05'917.7
2018-Feb-15 21:01N 43°22' E 010°09'917.5
2018-Feb-15 20:30N 43°30' E 010°13'5 9.2
2018-Feb-15 20:01N 43°33' E 010°18'0 0.9
2018-Feb-15 19:30N 43°33' E 010°18'0 0.0
2018-Feb-15 19:01N 43°33' E 010°18'0 0.0
2018-Feb-15 18:30N 43°33' E 010°18'0 0.0
2018-Feb-15 18:01N 43°33' E 010°18'0 0.0
2018-Feb-15 17:31N 43°33' E 010°18'2 3.9
2018-Feb-15 17:01N 43°32' E 010°16'612.9
2018-Feb-15 16:30N 43°26' E 010°12'816.4
2018-Feb-15 16:00N 43°19' E 010°08'816.0
2018-Feb-15 15:30N 43°11' E 010°05'2014.6
2018-Feb-15 14:10N 42°54' E 009°51'2 0.5
2018-Feb-15 10:08N 42°54' E 009°48'217.2
2018-Feb-15 10:00N 42°55' E 009°50'917.1
2018-Feb-15 09:31N 43°01' E 009°58'917.5
2018-Feb-15 09:01N 43°10' E 010°02'917.5
2018-Feb-15 08:31N 43°18' E 010°06'917.6
2018-Feb-15 08:00N 43°26' E 010°10'714.7
2018-Feb-15 07:30N 43°32' E 010°16'2 4.0
2018-Feb-15 07:01N 43°33' E 010°18'0 0.0
2018-Feb-15 06:30N 43°33' E 010°18'0 0.0
2018-Feb-15 06:01N 43°33' E 010°18'0 1.0
2018-Feb-15 05:31N 43°33' E 010°18'4 8.6
2018-Feb-15 05:00N 43°30' E 010°14'917.5
2018-Feb-15 04:30N 43°21' E 010°10'917.7
2018-Feb-15 04:00N 43°13' E 010°07'9 0.3
2018-Feb-13 22:02N 43°05' E 010°02'118.1
2018-Feb-13 21:59N 43°06' E 010°02'817.6
2018-Feb-13 21:30N 43°14' E 010°05'917.7
2018-Feb-13 21:00N 43°22' E 010°09'917.5
2018-Feb-13 20:30N 43°31' E 010°13'4 8.9
2018-Feb-13 20:00N 43°33' E 010°18'0 0.6
2018-Feb-13 19:30N 43°33' E 010°18'0 0.0
2018-Feb-13 19:00N 43°33' E 010°18'0 0.0
2018-Feb-13 18:31N 43°33' E 010°18'0 0.0
2018-Feb-13 18:00N 43°33' E 010°18'0 0.0
2018-Feb-13 17:30N 43°33' E 010°18'2 3.7
2018-Feb-13 17:00N 43°32' E 010°16'612.9
2018-Feb-13 16:30N 43°27' E 010°12'817.0
2018-Feb-13 16:00N 43°19' E 010°07'817.0
2018-Feb-13 15:31N 43°11' E 010°03'1916.3
2018-Feb-13 14:21N 42°54' E 009°50'2 0.5
2018-Feb-13 10:32N 42°54' E 009°48'017.8
2018-Feb-13 10:30N 42°54' E 009°48'917.3
2018-Feb-13 09:58N 43°00' E 009°58'817.7
2018-Feb-13 09:30N 43°08' E 010°01'917.8
2018-Feb-13 09:00N 43°16' E 010°05'917.8
2018-Feb-13 08:30N 43°25' E 010°09'816.5
2018-Feb-13 08:00N 43°32' E 010°15'3 5.4
2018-Feb-13 07:30N 43°33' E 010°18'0 0.0
2018-Feb-13 07:00N 43°33' E 010°18'0 0.0
2018-Feb-13 06:30N 43°33' E 010°18'0 0.5
2018-Feb-13 06:00N 43°33' E 010°18'3 6.5
2018-Feb-13 05:30N 43°31' E 010°15'815.4
2018-Feb-13 05:00N 43°24' E 010°11'816.8
2018-Feb-13 04:30N 43°15' E 010°08'816.9
2018-Feb-13 04:00N 43°07' E 010°06'4 0.1
2018-Feb-11 23:02N 43°03' E 010°04'117.5
2018-Feb-11 23:00N 43°04' E 010°04'917.1
2018-Feb-11 22:30N 43°12' E 010°06'917.2
2018-Feb-11 22:00N 43°20' E 010°09'817.0
2018-Feb-11 21:30N 43°29' E 010°12'611.4
2018-Feb-11 21:00N 43°33' E 010°17'1 1.5
2018-Feb-11 20:30N 43°33' E 010°18'0 0.0
2018-Feb-11 20:00N 43°33' E 010°18'0 0.0
2018-Feb-11 19:30N 43°33' E 010°18'3 5.0
2018-Feb-11 19:00N 43°31' E 010°16'612.3
2018-Feb-11 18:30N 43°26' E 010°11'816.5
2018-Feb-11 18:00N 43°19' E 010°07'816.6
2018-Feb-11 17:30N 43°11' E 010°03'21 4.2
2018-Feb-11 12:36N 42°54' E 009°48'1517.2
2018-Feb-11 11:44N 43°05' E 010°00'417.8
2018-Feb-11 11:31N 43°09' E 010°02'917.7
2018-Feb-11 11:01N 43°18' E 010°05'917.7
2018-Feb-11 10:31N 43°26' E 010°09'815.0
2018-Feb-11 10:00N 43°32' E 010°16'2 4.3
2018-Feb-11 09:30N 43°33' E 010°18'0 0.0
2018-Feb-11 09:00N 43°33' E 010°18'0 0.0
2018-Feb-11 08:30N 43°33' E 010°18'0 0.0
2018-Feb-11 08:00N 43°33' E 010°18'0 0.0
2018-Feb-11 07:30N 43°33' E 010°18'0 0.0
2018-Feb-11 07:00N 43°33' E 010°18'1 2.5
2018-Feb-11 06:30N 43°32' E 010°17'510.6
2018-Feb-11 06:00N 43°28' E 010°13'714.9
2018-Feb-11 05:30N 43°21' E 010°10'815.1
2018-Feb-11 05:00N 43°14' E 010°08'10 0.3
2018-Feb-09 22:08N 43°04' E 010°04'  

Dump ship's entire track history